Time;durP1;ratioP1;P1;durP2;ratioP2;P2;SDS_P1;SDS_P2;PMS_P1;PMS_P2;Temp;Humidity;BMP_temperature;BMP_pressure;BME280_temperature;BME280_humidity;BME280_pressure;Samples;Min_cycle;Max_cycle;Signal;HPM_P1;HPM_P2
2022/01/06 00:02:23;;;;;;;;;;;;;;;;;;5089111;28;19911;-68
2022/01/06 00:04:48;;;;;;;;;;;;;;;;;;5088967;28;19915;-68
2022/01/06 00:07:13;;;;;;;;;;;;;;;;;;5087096;28;19921;-68
2022/01/06 00:09:38;;;;;;;;;;;;;;;;;;5089029;28;19916;-68
2022/01/06 00:12:03;;;;;;;;;;;;;;;;;;5088752;28;19916;-68
2022/01/06 00:14:54;;;;;;;;;;;;;;;;;;5088921;28;19908;-67
2022/01/06 00:17:42;;;;;;;;;;;;;;;;;;5088326;28;19911;-67
2022/01/06 00:25:29;;;;;;;;;;;;;;;;;;5088857;28;19924;-68
2022/01/06 00:27:54;;;;;;;;;;;;;;;;;;5088864;28;21498;-66
2022/01/06 00:30:19;;;;;;;;;;;;;;;;;;5088511;28;20936;-68
2022/01/06 00:32:44;;;;;;;;;;;;;;;;;;5092155;28;19915;-68
2022/01/06 00:35:09;;;;;;;;;;;;;;;;;;5091780;28;19908;-68
2022/01/06 00:37:34;;;;;;;;;;;;;;;;;;5073447;28;19908;-67
2022/01/06 00:39:59;;;;;;;;;;;;;;;;;;5092205;28;19908;-68
2022/01/06 00:42:24;;;;;;;;;;;;;;;;;;5092329;28;19915;-67
2022/01/06 00:44:49;;;;;;;;;;;;;;;;;;5092852;28;19915;-68
2022/01/06 00:47:15;;;;;;;;;;;;;;;;;;5092014;28;20269;-68
2022/01/06 00:49:40;;;;;;;;;;;;;;;;;;5092546;28;19915;-68
2022/01/06 00:52:05;;;;;;;;;;;;;;;;;;5091624;28;19947;-68
2022/01/06 00:54:32;;;;;;;;;;;;;;;;;;5092305;28;19997;-68
2022/01/06 00:56:57;;;;;;;;;;;;;;;;;;5074272;28;20043;-68
2022/01/06 00:59:22;;;;;;;;;;;;;;;;;;5091106;28;19998;-65
2022/01/06 01:01:47;;;;;;;;;;;;;;;;;;5092342;28;19912;-68
2022/01/06 01:04:12;;;;;;;;;;;;;;;;;;5091533;28;19990;-68
2022/01/06 01:06:38;;;;;;;;;;;;;;;;;;5090496;28;19959;-67
2022/01/06 01:09:03;;;;;;;;;;;;;;;;;;5091698;28;19912;-67
2022/01/06 01:11:28;;;;;;;;;;;;;;;;;;5091965;28;19923;-67
2022/01/06 01:13:55;;;;;;;;;;;;;;;;;;5092061;28;19915;-67
2022/01/06 01:16:24;;;;;;;;;;;;;;;;;;5091841;28;19908;-67
2022/01/06 01:18:49;;;;;;;;;;;;;;;;;;5090685;28;19969;-67
2022/01/06 01:21:15;;;;;;;;;;;;;;;;;;5072941;28;19915;-67
2022/01/06 01:23:40;;;;;;;;;;;;;;;;;;5094615;28;19912;-67
2022/01/06 01:26:05;;;;;;;;;;;;;;;;;;5091272;28;20372;-67
2022/01/06 01:28:41;;;;;;;;;;;;;;;;;;5091830;28;19916;-67
2022/01/06 01:33:47;;;;;;;;;;;;;;;;;;5088856;28;20296;-67
2022/01/06 01:36:13;;;;;;;;;;;;;;;;;;5090748;28;19953;-67
2022/01/06 01:38:38;;;;;;;;;;;;;;;;;;5091597;28;19916;-67
2022/01/06 01:41:04;;;;;;;;;;;;;;;;;;5091212;28;20280;-68
2022/01/06 01:43:29;;;;;;;;;;;;;;;;;;5090284;28;19922;-68
2022/01/06 01:45:57;;;;;;;;;;;;;;;;;;5091215;28;20273;-68
2022/01/06 01:48:29;;;;;;;;;;;;;;;;;;5072812;28;19924;-67
2022/01/06 01:50:54;;;;;;;;;;;;;;;;;;5090019;28;19912;-68
2022/01/06 01:53:19;;;;;;;;;;;;;;;;;;5090847;28;19912;-67
2022/01/06 01:55:44;;;;;;;;;;;;;;;;;;5091267;28;19922;-67
2022/01/06 01:58:09;;;;;;;;;;;;;;;;;;5090753;28;20265;-67
2022/01/06 02:00:34;;;;;;;;;;;;;;;;;;5091617;28;19994;-67
2022/01/06 02:02:59;;;;;;;;;;;;;;;;;;5089110;28;19908;-67
2022/01/06 02:05:26;;;;;;;;;;;;;;;;;;5090103;28;19908;-67
2022/01/06 02:07:51;;;;;;;;;;;;;;;;;;5091043;28;19965;-67
2022/01/06 02:10:18;;;;;;;;;;;;;;;;;;5090194;28;19998;-66
2022/01/06 02:12:44;;;;;;;;;;;;;;;;;;5089441;28;19919;-67
2022/01/06 02:15:09;;;;;;;;;;;;;;;;;;5090535;28;19912;-75
2022/01/06 02:17:34;;;;;;;;;;;;;;;;;;5090694;28;19916;-74
2022/01/06 02:20:00;;;;;;;;;;;;;;;;;;5090955;28;19908;-74
2022/01/06 02:22:25;;;;;;;;;;;;;;;;;;5090101;28;19912;-74
2022/01/06 02:24:50;;;;;;;;;;;;;;;;;;5090484;28;19912;-74
2022/01/06 02:27:15;;;;;;;;;;;;;;;;;;5089989;28;19973;-74
2022/01/06 02:29:40;;;;;;;;;;;;;;;;;;5090300;28;19912;-74
2022/01/06 02:32:05;;;;;;;;;;;;;;;;;;5088181;28;20293;-74
2022/01/06 02:34:30;;;;;;;;;;;;;;;;;;5090374;28;19915;-74
2022/01/06 02:36:56;;;;;;;;;;;;;;;;;;5089962;28;20003;-73
2022/01/06 02:39:21;;;;;;;;;;;;;;;;;;5089952;28;20403;-74
2022/01/06 02:41:46;;;;;;;;;;;;;;;;;;5090441;28;20002;-73
2022/01/06 02:44:11;;;;;;;;;;;;;;;;;;5089433;28;19996;-73
2022/01/06 02:46:39;;;;;;;;;;;;;;;;;;5088532;28;19934;-74
2022/01/06 02:49:05;;;;;;;;;;;;;;;;;;5090378;28;20349;-74
2022/01/06 02:51:30;;;;;;;;;;;;;;;;;;5089470;28;20361;-74
2022/01/06 02:53:55;;;;;;;;;;;;;;;;;;5090040;28;19908;-74
2022/01/06 02:56:20;;;;;;;;;;;;;;;;;;5089491;28;19923;-73
2022/01/06 02:58:45;;;;;;;;;;;;;;;;;;5090207;28;20319;-75
2022/01/06 03:01:10;;;;;;;;;;;;;;;;;;5070290;28;19951;-75
2022/01/06 03:03:35;;;;;;;;;;;;;;;;;;5071563;28;19911;-75
2022/01/06 03:06:01;;;;;;;;;;;;;;;;;;5089461;28;19908;-74
2022/01/06 03:08:27;;;;;;;;;;;;;;;;;;5089328;28;20336;-73
2022/01/06 03:10:54;;;;;;;;;;;;;;;;;;5089554;28;19908;-71
2022/01/06 03:13:19;;;;;;;;;;;;;;;;;;5089465;28;19912;-73
2022/01/06 03:15:44;;;;;;;;;;;;;;;;;;5091218;28;20371;-73
2022/01/06 03:18:09;;;;;;;;;;;;;;;;;;5089111;28;19994;-73
2022/01/06 03:20:34;;;;;;;;;;;;;;;;;;5089407;28;19999;-73
2022/01/06 03:22:59;;;;;;;;;;;;;;;;;;5089509;28;19908;-72
2022/01/06 03:25:24;;;;;;;;;;;;;;;;;;5088726;28;19916;-73
2022/01/06 03:27:50;;;;;;;;;;;;;;;;;;5089430;28;19923;-73
2022/01/06 03:30:15;;;;;;;;;;;;;;;;;;5069554;28;20011;-73
2022/01/06 03:32:40;;;;;;;;;;;;;;;;;;5089734;28;19911;-73
2022/01/06 03:35:05;;;;;;;;;;;;;;;;;;5087941;28;19916;-73
2022/01/06 03:37:30;;;;;;;;;;;;;;;;;;5088623;28;19908;-73
2022/01/06 03:39:55;;;;;;;;;;;;;;;;;;5089396;28;19919;-74
2022/01/06 03:42:20;;;;;;;;;;;;;;;;;;5088459;28;19912;-74
2022/01/06 03:44:46;;;;;;;;;;;;;;;;;;5071206;28;19908;-68
2022/01/06 03:47:11;;;;;;;;;;;;;;;;;;5088828;28;19916;-74
2022/01/06 03:49:36;;;;;;;;;;;;;;;;;;5089218;28;19991;-73
2022/01/06 03:52:01;;;;;;;;;;;;;;;;;;5070696;28;19939;-72
2022/01/06 03:54:26;;;;;;;;;;;;;;;;;;5089103;28;19991;-73
2022/01/06 03:56:52;;;;;;;;;;;;;;;;;;5089252;28;19915;-73
2022/01/06 03:59:17;;;;;;;;;;;;;;;;;;5087319;28;19916;-73
2022/01/06 04:01:42;;;;;;;;;;;;;;;;;;5088740;28;20328;-73
2022/01/06 04:04:07;;;;;;;;;;;;;;;;;;5088834;28;19995;-73
2022/01/06 04:06:32;;;;;;;;;;;;;;;;;;5089475;28;19957;-73
2022/01/06 04:08:57;;;;;;;;;;;;;;;;;;5092907;28;20292;-73
2022/01/06 04:11:22;;;;;;;;;;;;;;;;;;5092394;28;20344;-73
2022/01/06 04:13:47;;;;;;;;;;;;;;;;;;5093275;28;19908;-73
2022/01/06 04:16:15;;;;;;;;;;;;;;;;;;5092845;28;19916;-74
2022/01/06 04:18:40;;;;;;;;;;;;;;;;;;5092030;28;20368;-73
2022/01/06 04:21:06;;;;;;;;;;;;;;;;;;5092765;28;19914;-74
2022/01/06 04:23:32;;;;;;;;;;;;;;;;;;5074008;28;19908;-73
2022/01/06 04:25:57;;;;;;;;;;;;;;;;;;5092779;28;19923;-73
2022/01/06 04:28:22;;;;;;;;;;;;;;;;;;5091096;28;19927;-74
2022/01/06 04:30:47;;;;;;;;;;;;;;;;;;5092963;28;19915;-74
2022/01/06 04:33:12;;;;;;;;;;;;;;;;;;5092167;28;19907;-74
2022/01/06 04:35:37;;;;;;;;;;;;;;;;;;5092148;28;19914;-73
2022/01/06 04:38:02;;;;;;;;;;;;;;;;;;5092914;28;19995;-73
2022/01/06 04:40:27;;;;;;;;;;;;;;;;;;5092319;28;20278;-73
2022/01/06 04:42:52;;;;;;;;;;;;;;;;;;5092558;28;20679;-73
2022/01/06 04:45:17;;;;;;;;;;;;;;;;;;5091985;28;20368;-72
2022/01/06 04:47:43;;;;;;;;;;;;;;;;;;5092399;28;19951;-72
2022/01/06 04:50:08;;;;;;;;;;;;;;;;;;5092672;28;20003;-72
2022/01/06 04:52:33;;;;;;;;;;;;;;;;;;5091841;28;20303;-72
2022/01/06 04:54:58;;;;;;;;;;;;;;;;;;5092310;28;20736;-72
2022/01/06 04:57:23;;;;;;;;;;;;;;;;;;5090589;28;19916;-71
2022/01/06 04:59:48;;;;;;;;;;;;;;;;;;5092637;28;19953;-72
2022/01/06 05:02:13;;;;;;;;;;;;;;;;;;5091932;28;20011;-72
2022/01/06 05:04:38;;;;;;;;;;;;;;;;;;5092272;28;20379;-73
2022/01/06 05:07:03;;;;;;;;;;;;;;;;;;5091940;28;20010;-73
2022/01/06 05:09:29;;;;;;;;;;;;;;;;;;5091365;28;19916;-73
2022/01/06 05:11:54;;;;;;;;;;;;;;;;;;5092207;28;19912;-74
2022/01/06 05:14:19;;;;;;;;;;;;;;;;;;5091599;28;19915;-75
2022/01/06 05:16:44;;;;;;;;;;;;;;;;;;5091667;28;19974;-74
2022/01/06 05:19:09;;;;;;;;;;;;;;;;;;5093873;28;20006;-73
2022/01/06 05:21:34;;;;;;;;;;;;;;;;;;5091204;28;19912;-73
2022/01/06 05:24:00;;;;;;;;;;;;;;;;;;5091022;28;19908;-73
2022/01/06 05:26:25;;;;;;;;;;;;;;;;;;5090687;28;19916;-74
2022/01/06 05:28:50;;;;;;;;;;;;;;;;;;5091900;28;19912;-73
2022/01/06 05:31:16;;;;;;;;;;;;;;;;;;5091230;28;19947;-74
2022/01/06 05:33:41;;;;;;;;;;;;;;;;;;5091449;28;20027;-74
2022/01/06 05:36:06;;;;;;;;;;;;;;;;;;5091211;28;20353;-73
2022/01/06 05:38:31;;;;;;;;;;;;;;;;;;5091035;28;19912;-74
2022/01/06 05:40:56;;;;;;;;;;;;;;;;;;5091033;28;19912;-74
2022/01/06 05:43:21;;;;;;;;;;;;;;;;;;5090968;28;19919;-74
2022/01/06 05:45:47;;;;;;;;;;;;;;;;;;5091609;28;19908;-74
2022/01/06 05:48:12;;;;;;;;;;;;;;;;;;5091260;28;19916;-74
2022/01/06 05:50:37;;;;;;;;;;;;;;;;;;5090408;28;20253;-74
2022/01/06 05:53:02;;;;;;;;;;;;;;;;;;5089772;28;19916;-72
2022/01/06 05:55:27;;;;;;;;;;;;;;;;;;5091002;28;19912;-74
2022/01/06 05:57:53;;;;;;;;;;;;;;;;;;5091243;28;19912;-74
2022/01/06 06:00:18;;;;;;;;;;;;;;;;;;5090548;28;20319;-72
2022/01/06 06:02:43;;;;;;;;;;;;;;;;;;5091160;28;19912;-72
2022/01/06 06:05:08;;;;;;;;;;;;;;;;;;5091107;28;20029;-73
2022/01/06 06:07:33;;;;;;;;;;;;;;;;;;5090080;28;19920;-74
2022/01/06 06:09:58;;;;;;;;;;;;;;;;;;5090602;28;19916;-73
2022/01/06 06:12:23;;;;;;;;;;;;;;;;;;5090454;28;19918;-74
2022/01/06 06:14:49;;;;;;;;;;;;;;;;;;5090951;28;19923;-74
2022/01/06 06:17:14;;;;;;;;;;;;;;;;;;5090303;28;20273;-73
2022/01/06 06:19:39;;;;;;;;;;;;;;;;;;5090081;28;20270;-74
2022/01/06 06:22:04;;;;;;;;;;;;;;;;;;5089146;28;20380;-74
2022/01/06 06:24:29;;;;;;;;;;;;;;;;;;5089977;28;19923;-72
2022/01/06 06:26:54;;;;;;;;;;;;;;;;;;5090327;28;19920;-73
2022/01/06 06:29:19;;;;;;;;;;;;;;;;;;5089425;28;19907;-73
2022/01/06 06:31:44;;;;;;;;;;;;;;;;;;5090629;28;19907;-74
2022/01/06 06:34:10;;;;;;;;;;;;;;;;;;5090299;28;19916;-73
2022/01/06 06:36:36;;;;;;;;;;;;;;;;;;5089280;28;20420;-73
2022/01/06 06:39:01;;;;;;;;;;;;;;;;;;5071709;28;20423;-73
2022/01/06 06:41:26;;;;;;;;;;;;;;;;;;5089442;28;19919;-73
2022/01/06 06:43:51;;;;;;;;;;;;;;;;;;5090197;28;19912;-74
2022/01/06 06:46:16;;;;;;;;;;;;;;;;;;5089470;28;19912;-74
2022/01/06 06:48:42;;;;;;;;;;;;;;;;;;5090024;28;19923;-74
2022/01/06 06:51:07;;;;;;;;;;;;;;;;;;5088915;28;20256;-73
2022/01/06 06:53:32;;;;;;;;;;;;;;;;;;5089804;28;19916;-74
2022/01/06 06:55:58;;;;;;;;;;;;;;;;;;5089775;28;19912;-73
2022/01/06 06:58:23;;;;;;;;;;;;;;;;;;5089432;28;19916;-73
2022/01/06 07:00:48;;;;;;;;;;;;;;;;;;5089771;28;19908;-74
2022/01/06 07:03:13;;;;;;;;;;;;;;;;;;5090073;28;19912;-73
2022/01/06 07:05:38;;;;;;;;;;;;;;;;;;5089532;28;19916;-73
2022/01/06 07:08:04;;;;;;;;;;;;;;;;;;5089581;28;19927;-73
2022/01/06 07:10:29;;;;;;;;;;;;;;;;;;5089561;28;19962;-73
2022/01/06 07:12:54;;;;;;;;;;;;;;;;;;5089761;28;19998;-73
2022/01/06 07:15:19;;;;;;;;;;;;;;;;;;5090952;28;20279;-74
2022/01/06 07:17:44;;;;;;;;;;;;;;;;;;5089572;28;19962;-74
2022/01/06 07:20:09;;;;;;;;;;;;;;;;;;5088245;28;20337;-74
2022/01/06 07:22:34;;;;;;;;;;;;;;;;;;5088661;28;20792;-73
2022/01/06 07:25:01;;;;;;;;;;;;;;;;;;5089470;28;19955;-74
2022/01/06 07:27:26;;;;;;;;;;;;;;;;;;5088021;28;19947;-74
2022/01/06 07:29:51;;;;;;;;;;;;;;;;;;5089700;28;20315;-75
2022/01/06 07:32:16;;;;;;;;;;;;;;;;;;5089465;28;20284;-73
2022/01/06 07:34:41;;;;;;;;;;;;;;;;;;5088834;28;20374;-74
2022/01/06 07:37:06;;;;;;;;;;;;;;;;;;5088889;28;20393;-73
2022/01/06 07:39:32;;;;;;;;;;;;;;;;;;5088911;28;19998;-73
2022/01/06 07:41:57;;;;;;;;;;;;;;;;;;5088096;28;19998;-74
2022/01/06 07:44:22;;;;;;;;;;;;;;;;;;5070391;28;19908;-74
2022/01/06 07:46:47;;;;;;;;;;;;;;;;;;5089077;28;19912;-74
2022/01/06 07:49:12;;;;;;;;;;;;;;;;;;5087880;28;19919;-74
2022/01/06 07:51:37;;;;;;;;;;;;;;;;;;5088167;28;19915;-74
2022/01/06 07:54:03;;;;;;;;;;;;;;;;;;5089318;28;19908;-74
2022/01/06 07:56:28;;;;;;;;;;;;;;;;;;5088523;28;19912;-74
2022/01/06 07:58:53;;;;;;;;;;;;;;;;;;5088711;28;19998;-74
2022/01/06 08:01:18;;;;;;;;;;;;;;;;;;5088588;28;20149;-74
2022/01/06 08:03:43;;;;;;;;;;;;;;;;;;5088465;28;19955;-73
2022/01/06 08:06:08;;;;;;;;;;;;;;;;;;5089094;28;19916;-74
2022/01/06 08:08:33;;;;;;;;;;;;;;;;;;5088138;28;19915;-73
2022/01/06 08:10:58;;;;;;;;;;;;;;;;;;5088839;28;19916;-73
2022/01/06 08:13:24;;;;;;;;;;;;;;;;;;5088661;28;19912;-73
2022/01/06 08:15:49;;;;;;;;;;;;;;;;;;5088537;28;19922;-73
2022/01/06 08:18:14;;;;;;;;;;;;;;;;;;5087217;28;19954;-73
2022/01/06 08:20:39;;;;;;;;;;;;;;;;;;5088104;28;20042;-73
2022/01/06 08:23:04;;;;;;;;;;;;;;;;;;5088267;28;19946;-72
2022/01/06 08:25:29;;;;;;;;;;;;;;;;;;5087502;28;19920;-72
2022/01/06 08:27:54;;;;;;;;;;;;;;;;;;5085707;28;19949;-73
2022/01/06 08:30:19;;;;;;;;;;;;;;;;;;5088432;28;19915;-74
2022/01/06 08:32:44;;;;;;;;;;;;;;;;;;5088279;28;19954;-74
2022/01/06 08:35:10;;;;;;;;;;;;;;;;;;5088549;28;19912;-73
2022/01/06 08:37:35;;;;;;;;;;;;;;;;;;5087673;28;19965;-73
2022/01/06 08:40:00;;;;;;;;;;;;;;;;;;5088799;28;19908;-73
2022/01/06 08:42:25;;;;;;;;;;;;;;;;;;5088124;28;19912;-69
2022/01/06 08:44:50;;;;;;;;;;;;;;;;;;5088790;28;19955;-71
2022/01/06 08:47:15;;;;;;;;;;;;;;;;;;5086536;28;19977;-72
2022/01/06 08:49:41;;;;;;;;;;;;;;;;;;5069729;28;20039;-71
2022/01/06 08:52:06;;;;;;;;;;;;;;;;;;5087555;28;20292;-72
2022/01/06 08:54:31;;;;;;;;;;;;;;;;;;5090668;28;19961;-72
2022/01/06 08:56:56;;;;;;;;;;;;;;;;;;5090621;28;19923;-71
2022/01/06 08:59:21;;;;;;;;;;;;;;;;;;5090665;28;19935;-71
2022/01/06 09:01:46;;;;;;;;;;;;;;;;;;5091018;28;20395;-71
2022/01/06 09:04:12;;;;;;;;;;;;;;;;;;5090877;28;19919;-71
2022/01/06 09:06:37;;;;;;;;;;;;;;;;;;5090138;28;20322;-71
2022/01/06 09:09:02;;;;;;;;;;;;;;;;;;5090885;28;19923;-72
2022/01/06 09:11:27;;;;;;;;;;;;;;;;;;5090442;28;19908;-72
2022/01/06 09:13:52;;;;;;;;;;;;;;;;;;5090590;28;19912;-72
2022/01/06 09:16:17;;;;;;;;;;;;;;;;;;5089149;28;19939;-73
2022/01/06 09:18:42;;;;;;;;;;;;;;;;;;5089962;28;19998;-72
2022/01/06 09:21:07;;;;;;;;;;;;;;;;;;5090545;28;19948;-72
2022/01/06 09:23:33;;;;;;;;;;;;;;;;;;5089675;28;19912;-72
2022/01/06 09:25:58;;;;;;;;;;;;;;;;;;5092489;28;19930;-72
2022/01/06 09:28:23;;;;;;;;;;;;;;;;;;5090044;28;19920;-72
2022/01/06 09:30:50;;;;;;;;;;;;;;;;;;5090428;28;20327;-71
2022/01/06 09:33:16;;;;;;;;;;;;;;;;;;5090445;28;20381;-72
2022/01/06 09:35:41;;;;;;;;;;;;;;;;;;5089837;28;19923;-71
2022/01/06 09:38:07;;;;;;;;;;;;;;;;;;5089583;28;19912;-71
2022/01/06 09:40:32;;;;;;;;;;;;;;;;;;5089801;28;20003;-71
2022/01/06 09:42:57;;;;;;;;;;;;;;;;;;5090087;28;19908;-71
2022/01/06 09:45:22;;;;;;;;;;;;;;;;;;5087791;28;19920;-71
2022/01/06 09:47:47;;;;;;;;;;;;;;;;;;5089855;28;19916;-71
2022/01/06 09:50:13;;;;;;;;;;;;;;;;;;5089109;28;20671;-70
2022/01/06 09:52:38;;;;;;;;;;;;;;;;;;5089461;28;19908;-71
2022/01/06 09:55:03;;;;;;;;;;;;;;;;;;5089774;28;19998;-70
2022/01/06 09:57:28;;;;;;;;;;;;;;;;;;5089011;28;19927;-70
2022/01/06 09:59:53;;;;;;;;;;;;;;;;;;5090334;28;19958;-72
2022/01/06 10:02:18;;;;;;;;;;;;;;;;;;5090301;28;19916;-72
2022/01/06 10:04:44;;;;;;;;;;;;;;;;;;5089336;28;19912;-71
2022/01/06 10:07:09;;;;;;;;;;;;;;;;;;5090761;28;19919;-70
2022/01/06 10:09:34;;;;;;;;;;;;;;;;;;5090311;28;19912;-70
2022/01/06 10:11:59;;;;;;;;;;;;;;;;;;5090904;28;19908;-70
2022/01/06 10:14:32;;;;;;;;;;;;;;;;;;5088564;28;19908;-71
2022/01/06 10:16:57;;;;;;;;;;;;;;;;;;5089351;28;19908;-71
2022/01/06 10:19:22;;;;;;;;;;;;;;;;;;5090450;28;20049;-71
2022/01/06 10:21:47;;;;;;;;;;;;;;;;;;5089485;28;19915;-71
2022/01/06 10:24:12;;;;;;;;;;;;;;;;;;5090499;28;19932;-72
2022/01/06 10:26:37;;;;;;;;;;;;;;;;;;5089722;28;20333;-72
2022/01/06 10:29:03;;;;;;;;;;;;;;;;;;5090465;28;19965;-72
2022/01/06 10:31:28;;;;;;;;;;;;;;;;;;5089887;28;19915;-71
2022/01/06 10:33:53;;;;;;;;;;;;;;;;;;5090296;28;19919;-72
2022/01/06 10:36:18;;;;;;;;;;;;;;;;;;5090154;28;19973;-72
2022/01/06 10:38:43;;;;;;;;;;;;;;;;;;5089576;28;19912;-72
2022/01/06 10:41:08;;;;;;;;;;;;;;;;;;5087022;28;20169;-72
2022/01/06 10:43:33;;;;;;;;;;;;;;;;;;5089384;28;20314;-72
2022/01/06 10:45:59;;;;;;;;;;;;;;;;;;5089798;28;19915;-71
2022/01/06 10:48:24;;;;;;;;;;;;;;;;;;5089913;28;20359;-72
2022/01/06 10:50:49;;;;;;;;;;;;;;;;;;5089667;28;20018;-73
2022/01/06 10:53:14;;;;;;;;;;;;;;;;;;5088998;28;20002;-71
2022/01/06 10:55:39;;;;;;;;;;;;;;;;;;5088376;28;20010;-72
2022/01/06 10:58:04;;;;;;;;;;;;;;;;;;5087670;28;20008;-71
2022/01/06 11:00:29;;;;;;;;;;;;;;;;;;5087983;28;19914;-71
2022/01/06 11:02:54;;;;;;;;;;;;;;;;;;5088749;28;19935;-71
2022/01/06 11:05:20;;;;;;;;;;;;;;;;;;5088292;28;19915;-71
2022/01/06 11:07:45;;;;;;;;;;;;;;;;;;5088238;28;19923;-71
2022/01/06 11:10:20;;;;;;;;;;;;;;;;;;5087256;28;19994;-71
2022/01/06 11:12:45;;;;;;;;;;;;;;;;;;5086173;28;20257;-71
2022/01/06 11:15:10;;;;;;;;;;;;;;;;;;5087549;28;20365;-71
2022/01/06 11:17:36;;;;;;;;;;;;;;;;;;5090293;28;20345;-71
2022/01/06 11:20:01;;;;;;;;;;;;;;;;;;5088742;28;19912;-72
2022/01/06 11:22:26;;;;;;;;;;;;;;;;;;5087903;28;19915;-72
2022/01/06 11:24:51;;;;;;;;;;;;;;;;;;5069799;28;19981;-72
2022/01/06 11:27:16;;;;;;;;;;;;;;;;;;5087447;28;19920;-73
2022/01/06 11:29:41;;;;;;;;;;;;;;;;;;5087449;28;19912;-73
2022/01/06 11:32:06;;;;;;;;;;;;;;;;;;5088983;28;20266;-73
2022/01/06 11:34:31;;;;;;;;;;;;;;;;;;5088752;28;20445;-73
2022/01/06 11:36:57;;;;;;;;;;;;;;;;;;5088474;28;19915;-73
2022/01/06 11:39:22;;;;;;;;;;;;;;;;;;5087910;28;19928;-72
2022/01/06 11:41:47;;;;;;;;;;;;;;;;;;5094806;28;19916;-72
2022/01/06 11:44:12;;;;;;;;;;;;;;;;;;5092705;28;19908;-73
2022/01/06 11:46:37;;;;;;;;;;;;;;;;;;5088412;28;19912;-71
2022/01/06 11:49:02;;;;;;;;;;;;;;;;;;5091768;28;19908;-72
2022/01/06 11:51:27;;;;;;;;;;;;;;;;;;5075858;28;19916;-72
2022/01/06 11:53:52;;;;;;;;;;;;;;;;;;5093196;28;19912;-72
2022/01/06 11:56:18;;;;;;;;;;;;;;;;;;5087973;28;20011;-71
2022/01/06 11:58:43;;;;;;;;;;;;;;;;;;5090286;28;19911;-71
2022/01/06 12:01:09;;;;;;;;;;;;;;;;;;5094139;28;19916;-72
2022/01/06 12:03:34;;;;;;;;;;;;;;;;;;5094228;28;19919;-72
2022/01/06 12:05:59;;;;;;;;;;;;;;;;;;5087543;28;19922;-71
2022/01/06 12:08:24;;;;;;;;;;;;;;;;;;5087461;28;19930;-70
2022/01/06 12:10:49;;;;;;;;;;;;;;;;;;5092444;28;19966;-72
2022/01/06 12:13:14;;;;;;;;;;;;;;;;;;5092822;28;19912;-70
2022/01/06 12:15:39;;;;;;;;;;;;;;;;;;5087553;28;20277;-70
2022/01/06 12:18:04;;;;;;;;;;;;;;;;;;5090939;28;19916;-70
2022/01/06 12:20:30;;;;;;;;;;;;;;;;;;5090427;28;19912;-72
2022/01/06 12:22:55;;;;;;;;;;;;;;;;;;5088677;28;20293;-68
2022/01/06 12:25:20;;;;;;;;;;;;;;;;;;5087505;28;20380;-69
2022/01/06 12:27:48;;;;;;;;;;;;;;;;;;5088685;28;20284;-75
2022/01/06 12:30:13;;;;;;;;;;;;;;;;;;5092251;28;20418;-72
2022/01/06 12:32:38;;;;;;;;;;;;;;;;;;5092408;28;20311;-70
2022/01/06 12:35:03;;;;;;;;;;;;;;;;;;5092560;28;20250;-71
2022/01/06 12:37:28;;;;;;;;;;;;;;;;;;5090331;28;20450;-71
2022/01/06 12:39:53;;;;;;;;;;;;;;;;;;5092359;28;19912;-70
2022/01/06 12:42:18;;;;;;;;;;;;;;;;;;5092354;28;19923;-70
2022/01/06 12:44:44;;;;;;;;;;;;;;;;;;5091302;28;19927;-73
2022/01/06 12:47:09;;;;;;;;;;;;;;;;;;5091834;28;20238;-74
2022/01/06 12:49:34;;;;;;;;;;;;;;;;;;5073596;28;19930;-70
2022/01/06 12:52:01;;;;;;;;;;;;;;;;;;5092225;28;19916;-72
2022/01/06 12:54:26;;;;;;;;;;;;;;;;;;5091606;28;19912;-76
2022/01/06 12:56:53;;;;;;;;;;;;;;;;;;5092845;28;20631;-73
2022/01/06 12:59:23;;;;;;;;;;;;;;;;;;5090661;28;20465;-73
2022/01/06 13:01:48;;;;;;;;;;;;;;;;;;5091327;28;19966;-72
2022/01/06 13:04:13;;;;;;;;;;;;;;;;;;5092012;28;20037;-73
2022/01/06 13:06:39;;;;;;;;;;;;;;;;;;5089822;28;19915;-73
2022/01/06 13:09:04;;;;;;;;;;;;;;;;;;5091417;28;19912;-71
2022/01/06 13:11:29;;;;;;;;;;;;;;;;;;5091130;28;19916;-71
2022/01/06 13:13:54;;;;;;;;;;;;;;;;;;5091443;28;19912;-71
2022/01/06 13:16:19;;;;;;;;;;;;;;;;;;5090725;28;19994;-70
2022/01/06 13:18:44;;;;;;;;;;;;;;;;;;5091420;28;19918;-70
2022/01/06 13:21:10;;;;;;;;;;;;;;;;;;5090366;28;20364;-70
2022/01/06 13:26:00;;;;;;;;;;;;;;;;;;5075512;28;19916;-71
2022/01/06 13:28:25;;;;;;;;;;;;;;;;;;5069874;28;19959;-71
2022/01/06 13:30:50;;;;;;;;;;;;;;;;;;5069897;28;19954;-70
2022/01/06 13:33:15;;;;;;;;;;;;;;;;;;5069765;28;19963;-71
2022/01/06 13:35:40;;;;;;;;;;;;;;;;;;5068281;28;19915;-71
2022/01/06 13:38:06;;;;;;;;;;;;;;;;;;5069084;28;19916;-70
2022/01/06 13:40:32;;;;;;;;;;;;;;;;;;5068188;28;19913;-71
2022/01/06 13:42:57;;;;;;;;;;;;;;;;;;5070336;28;19955;-70
2022/01/06 13:45:36;;;;;;;;;;;;;;;;;;5070147;28;20016;-71
2022/01/06 13:48:19;;;;;;;;;;;;;;;;;;5070651;28;19916;-71
2022/01/06 13:53:28;;;;;;;;;;;;;;;;;;5069119;28;19919;-71
2022/01/06 13:55:53;;;;;;;;;;;;;;;;;;5070759;28;20027;-70
2022/01/06 13:58:18;;;;;;;;;;;;;;;;;;5070305;28;20011;-72
2022/01/06 14:00:44;;;;;;;;;;;;;;;;;;5069833;28;19966;-72
2022/01/06 14:03:09;;;;;;;;;;;;;;;;;;5068061;28;20015;-72
2022/01/06 14:05:34;;;;;;;;;;;;;;;;;;5069314;28;19996;-72
2022/01/06 14:07:59;;;;;;;;;;;;;;;;;;5069866;28;19924;-71
2022/01/06 14:10:24;;;;;;;;;;;;;;;;;;5070574;28;19919;-71
2022/01/06 14:12:49;;;;;;;;;;;;;;;;;;5069775;28;20324;-71
2022/01/06 14:15:16;;;;;;;;;;;;;;;;;;5070120;28;19983;-72
2022/01/06 14:17:41;;;;;;;;;;;;;;;;;;5069183;28;20387;-70
2022/01/06 14:20:06;;;;;;;;;;;;;;;;;;5069602;28;20365;-70
2022/01/06 14:22:31;;;;;;;;;;;;;;;;;;5069143;28;19912;-72
2022/01/06 14:24:56;;;;;;;;;;;;;;;;;;5075031;28;19912;-71
2022/01/06 14:27:22;;;;;;;;;;;;;;;;;;5091680;28;19926;-72
2022/01/06 14:29:47;;;;;;;;;;;;;;;;;;5089766;28;19927;-71
2022/01/06 14:32:12;;;;;;;;;;;;;;;;;;5087672;28;19988;-72
2022/01/06 14:34:37;;;;;;;;;;;;;;;;;;5089142;28;19944;-71
2022/01/06 14:37:02;;;;;;;;;;;;;;;;;;5090044;28;19907;-71
2022/01/06 14:39:27;;;;;;;;;;;;;;;;;;5089328;28;19915;-71
2022/01/06 14:41:53;;;;;;;;;;;;;;;;;;5090451;28;19947;-71
2022/01/06 14:44:18;;;;;;;;;;;;;;;;;;5090059;28;20276;-71
2022/01/06 14:46:43;;;;;;;;;;;;;;;;;;5089435;28;19908;-71
2022/01/06 14:49:08;;;;;;;;;;;;;;;;;;5090020;28;19922;-71
2022/01/06 14:51:33;;;;;;;;;;;;;;;;;;5089027;28;19907;-70
2022/01/06 14:53:58;;;;;;;;;;;;;;;;;;5089602;28;19916;-71
2022/01/06 14:56:24;;;;;;;;;;;;;;;;;;5090034;28;19920;-71
2022/01/06 14:58:49;;;;;;;;;;;;;;;;;;5089338;28;19922;-71
2022/01/06 15:01:14;;;;;;;;;;;;;;;;;;5087641;28;19930;-71
2022/01/06 15:03:39;;;;;;;;;;;;;;;;;;5089352;28;20345;-71
2022/01/06 15:06:04;;;;;;;;;;;;;;;;;;5089719;28;19908;-71
2022/01/06 15:08:29;;;;;;;;;;;;;;;;;;5088540;28;19994;-72
2022/01/06 15:10:54;;;;;;;;;;;;;;;;;;5089371;28;19915;-72
2022/01/06 15:13:20;;;;;;;;;;;;;;;;;;5089641;28;19916;-72
2022/01/06 15:15:45;;;;;;;;;;;;;;;;;;5089237;28;20003;-72
2022/01/06 15:18:12;;;;;;;;;;;;;;;;;;5089621;28;19965;-72
2022/01/06 15:20:37;;;;;;;;;;;;;;;;;;5089060;28;20363;-71
2022/01/06 15:23:02;;;;;;;;;;;;;;;;;;5092318;28;20305;-71
2022/01/06 15:25:28;;;;;;;;;;;;;;;;;;5089059;28;20373;-71
2022/01/06 15:27:55;;;;;;;;;;;;;;;;;;5088784;28;19930;-71
2022/01/06 15:30:20;;;;;;;;;;;;;;;;;;5087621;28;19908;-71
2022/01/06 15:32:45;;;;;;;;;;;;;;;;;;5088545;28;19908;-71
2022/01/06 15:35:10;;;;;;;;;;;;;;;;;;5089266;28;19923;-71
2022/01/06 15:37:36;;;;;;;;;;;;;;;;;;5088324;28;20323;-70
2022/01/06 15:40:01;;;;;;;;;;;;;;;;;;5089378;28;20018;-71
2022/01/06 15:42:26;;;;;;;;;;;;;;;;;;5089106;28;19934;-71
2022/01/06 15:44:51;;;;;;;;;;;;;;;;;;5087951;28;20300;-72
2022/01/06 15:47:16;;;;;;;;;;;;;;;;;;5088464;28;20361;-72
2022/01/06 15:49:41;;;;;;;;;;;;;;;;;;5088153;28;20511;-71
2022/01/06 15:52:06;;;;;;;;;;;;;;;;;;5088955;28;20407;-71
2022/01/06 15:54:31;;;;;;;;;;;;;;;;;;5088468;28;19954;-71
2022/01/06 15:56:56;;;;;;;;;;;;;;;;;;5089018;28;20380;-71
2022/01/06 15:59:28;;;;;;;;;;;;;;;;;;5087024;28;19912;-72
2022/01/06 16:07:05;;;;;;;;;;;;;;;;;;5088578;28;19922;-72
2022/01/06 16:09:30;;;;;;;;;;;;;;;;;;5088409;28;19908;-72
2022/01/06 16:11:55;;;;;;;;;;;;;;;;;;5088510;28;19959;-72
2022/01/06 16:14:20;;;;;;;;;;;;;;;;;;5088635;28;19960;-72
2022/01/06 16:16:50;;;;;;;;;;;;;;;;;;5088402;28;19961;-72
2022/01/06 16:19:15;;;;;;;;;;;;;;;;;;5088403;28;19927;-72
2022/01/06 16:21:40;;;;;;;;;;;;;;;;;;5088227;28;19912;-72
2022/01/06 16:24:05;;;;;;;;;;;;;;;;;;5088539;28;19908;-72
2022/01/06 16:26:30;;;;;;;;;;;;;;;;;;5088239;28;19920;-72
2022/01/06 16:28:55;;;;;;;;;;;;;;;;;;5086529;28;20365;-72
2022/01/06 16:31:20;;;;;;;;;;;;;;;;;;5087681;28;19921;-71
2022/01/06 16:33:46;;;;;;;;;;;;;;;;;;5088333;28;19908;-72
2022/01/06 16:36:11;;;;;;;;;;;;;;;;;;5088475;28;20675;-72
2022/01/06 16:38:36;;;;;;;;;;;;;;;;;;5087860;28;19908;-72
2022/01/06 16:41:01;;;;;;;;;;;;;;;;;;5088878;28;19911;-72
2022/01/06 16:43:27;;;;;;;;;;;;;;;;;;5088793;28;20000;-72
2022/01/06 16:45:52;;;;;;;;;;;;;;;;;;5087922;28;19916;-71
2022/01/06 16:48:18;;;;;;;;;;;;;;;;;;5088546;28;19919;-72
2022/01/06 16:50:43;;;;;;;;;;;;;;;;;;5088493;28;19915;-72
2022/01/06 16:53:08;;;;;;;;;;;;;;;;;;5088347;28;19946;-71